sensor_id;sensor_type;location;lat;lon;timestamp;P1;durP1;ratioP1;P2;durP2;ratioP2
66886;SDS011;67239;51.680;5.976;2023-07-09T00:02:19;11.73;;;7.25;;
66886;SDS011;67239;51.680;5.976;2023-07-09T00:04:49;15.80;;;7.68;;
66886;SDS011;67239;51.680;5.976;2023-07-09T00:09:58;13.52;;;8.30;;
66886;SDS011;67239;51.680;5.976;2023-07-09T00:12:26;10.70;;;7.50;;
66886;SDS011;67239;51.680;5.976;2023-07-09T00:14:53;14.52;;;7.65;;
66886;SDS011;67239;51.680;5.976;2023-07-09T00:17:26;12.48;;;7.90;;
66886;SDS011;67239;51.680;5.976;2023-07-09T00:19:57;15.57;;;7.68;;
66886;SDS011;67239;51.680;5.976;2023-07-09T00:22:24;13.10;;;8.25;;
66886;SDS011;67239;51.680;5.976;2023-07-09T00:24:53;14.55;;;8.20;;
66886;SDS011;67239;51.680;5.976;2023-07-09T00:27:25;11.60;;;7.40;;
66886;SDS011;67239;51.680;5.976;2023-07-09T00:32:24;10.57;;;7.28;;
66886;SDS011;67239;51.680;5.976;2023-07-09T00:34:52;12.20;;;7.50;;
66886;SDS011;67239;51.680;5.976;2023-07-09T00:37:23;13.57;;;8.18;;
66886;SDS011;67239;51.680;5.976;2023-07-09T00:39:52;10.40;;;7.32;;
66886;SDS011;67239;51.680;5.976;2023-07-09T00:42:20;13.23;;;8.07;;
66886;SDS011;67239;51.680;5.976;2023-07-09T00:44:51;12.98;;;7.68;;
66886;SDS011;67239;51.680;5.976;2023-07-09T00:50:22;12.70;;;7.35;;
66886;SDS011;67239;51.680;5.976;2023-07-09T00:53:18;14.25;;;7.82;;
66886;SDS011;67239;51.680;5.976;2023-07-09T00:55:58;12.98;;;8.15;;
66886;SDS011;67239;51.680;5.976;2023-07-09T00:58:31;12.30;;;7.80;;
66886;SDS011;67239;51.680;5.976;2023-07-09T01:01:04;14.70;;;7.75;;
66886;SDS011;67239;51.680;5.976;2023-07-09T01:03:45;13.90;;;7.97;;
66886;SDS011;67239;51.680;5.976;2023-07-09T01:06:23;13.13;;;7.60;;
66886;SDS011;67239;51.680;5.976;2023-07-09T01:08:59;12.57;;;7.57;;
66886;SDS011;67239;51.680;5.976;2023-07-09T01:11:32;13.65;;;7.63;;
66886;SDS011;67239;51.680;5.976;2023-07-09T01:14:01;10.52;;;7.28;;
66886;SDS011;67239;51.680;5.976;2023-07-09T01:16:41;11.55;;;7.28;;
66886;SDS011;67239;51.680;5.976;2023-07-09T01:19:20;12.23;;;8.00;;
66886;SDS011;67239;51.680;5.976;2023-07-09T01:21:50;14.25;;;7.80;;
66886;SDS011;67239;51.680;5.976;2023-07-09T01:27:33;13.82;;;8.35;;
66886;SDS011;67239;51.680;5.976;2023-07-09T01:30:29;12.88;;;7.82;;
66886;SDS011;67239;51.680;5.976;2023-07-09T01:33:01;16.33;;;8.90;;
66886;SDS011;67239;51.680;5.976;2023-07-09T01:35:31;16.13;;;8.38;;
66886;SDS011;67239;51.680;5.976;2023-07-09T01:38:01;14.40;;;8.25;;
66886;SDS011;67239;51.680;5.976;2023-07-09T01:40:29;15.07;;;8.05;;
66886;SDS011;67239;51.680;5.976;2023-07-09T01:43:00;17.75;;;8.02;;
66886;SDS011;67239;51.680;5.976;2023-07-09T01:45:33;15.13;;;7.97;;
66886;SDS011;67239;51.680;5.976;2023-07-09T01:48:04;13.48;;;7.97;;
66886;SDS011;67239;51.680;5.976;2023-07-09T01:50:33;11.60;;;7.72;;
66886;SDS011;67239;51.680;5.976;2023-07-09T01:53:00;14.25;;;8.68;;
66886;SDS011;67239;51.680;5.976;2023-07-09T01:55:28;14.00;;;8.15;;
66886;SDS011;67239;51.680;5.976;2023-07-09T01:57:57;10.23;;;7.88;;
66886;SDS011;67239;51.680;5.976;2023-07-09T02:00:24;12.40;;;8.05;;
66886;SDS011;67239;51.680;5.976;2023-07-09T02:02:51;13.77;;;7.95;;
66886;SDS011;67239;51.680;5.976;2023-07-09T02:05:19;10.75;;;7.63;;
66886;SDS011;67239;51.680;5.976;2023-07-09T02:07:47;11.55;;;8.30;;
66886;SDS011;67239;51.680;5.976;2023-07-09T02:10:15;14.32;;;8.35;;
66886;SDS011;67239;51.680;5.976;2023-07-09T02:12:44;12.77;;;8.30;;
66886;SDS011;67239;51.680;5.976;2023-07-09T02:15:12;12.43;;;7.85;;
66886;SDS011;67239;51.680;5.976;2023-07-09T02:17:40;14.40;;;9.20;;
66886;SDS011;67239;51.680;5.976;2023-07-09T02:20:08;14.27;;;9.48;;
66886;SDS011;67239;51.680;5.976;2023-07-09T02:22:37;12.48;;;8.70;;
66886;SDS011;67239;51.680;5.976;2023-07-09T02:25:06;12.98;;;8.57;;
66886;SDS011;67239;51.680;5.976;2023-07-09T02:27:35;15.00;;;8.13;;
66886;SDS011;67239;51.680;5.976;2023-07-09T02:30:05;12.70;;;8.05;;
66886;SDS011;67239;51.680;5.976;2023-07-09T02:32:33;16.40;;;7.72;;
66886;SDS011;67239;51.680;5.976;2023-07-09T02:35:01;13.52;;;7.32;;
66886;SDS011;67239;51.680;5.976;2023-07-09T02:37:28;10.98;;;7.90;;
66886;SDS011;67239;51.680;5.976;2023-07-09T02:39:55;11.65;;;7.82;;
66886;SDS011;67239;51.680;5.976;2023-07-09T02:42:23;13.25;;;8.68;;
66886;SDS011;67239;51.680;5.976;2023-07-09T02:44:50;13.40;;;8.40;;
66886;SDS011;67239;51.680;5.976;2023-07-09T02:47:18;11.57;;;8.80;;
66886;SDS011;67239;51.680;5.976;2023-07-09T02:49:47;13.90;;;8.32;;
66886;SDS011;67239;51.680;5.976;2023-07-09T02:52:15;13.43;;;7.85;;
66886;SDS011;67239;51.680;5.976;2023-07-09T02:54:42;17.98;;;8.68;;
66886;SDS011;67239;51.680;5.976;2023-07-09T02:57:09;11.05;;;7.70;;
66886;SDS011;67239;51.680;5.976;2023-07-09T02:59:36;14.55;;;8.63;;
66886;SDS011;67239;51.680;5.976;2023-07-09T03:02:04;14.43;;;8.23;;
66886;SDS011;67239;51.680;5.976;2023-07-09T03:04:31;12.20;;;8.38;;
66886;SDS011;67239;51.680;5.976;2023-07-09T03:06:59;13.95;;;8.82;;
66886;SDS011;67239;51.680;5.976;2023-07-09T03:09:27;15.48;;;8.50;;
66886;SDS011;67239;51.680;5.976;2023-07-09T03:11:55;13.02;;;8.85;;
66886;SDS011;67239;51.680;5.976;2023-07-09T03:14:23;14.13;;;7.85;;
66886;SDS011;67239;51.680;5.976;2023-07-09T03:16:50;12.45;;;8.38;;
66886;SDS011;67239;51.680;5.976;2023-07-09T03:19:17;11.70;;;7.75;;
66886;SDS011;67239;51.680;5.976;2023-07-09T03:21:44;14.73;;;8.35;;
66886;SDS011;67239;51.680;5.976;2023-07-09T03:24:12;12.43;;;8.38;;
66886;SDS011;67239;51.680;5.976;2023-07-09T03:26:42;13.18;;;7.82;;
66886;SDS011;67239;51.680;5.976;2023-07-09T03:29:09;12.98;;;7.97;;
66886;SDS011;67239;51.680;5.976;2023-07-09T03:31:36;13.65;;;8.50;;
66886;SDS011;67239;51.680;5.976;2023-07-09T03:34:03;14.25;;;8.52;;
66886;SDS011;67239;51.680;5.976;2023-07-09T03:36:30;15.30;;;8.95;;
66886;SDS011;67239;51.680;5.976;2023-07-09T03:38:58;14.00;;;8.95;;
66886;SDS011;67239;51.680;5.976;2023-07-09T03:41:25;12.95;;;8.40;;
66886;SDS011;67239;51.680;5.976;2023-07-09T03:43:52;11.27;;;8.48;;
66886;SDS011;67239;51.680;5.976;2023-07-09T03:46:20;12.88;;;8.20;;
66886;SDS011;67239;51.680;5.976;2023-07-09T03:48:47;13.48;;;8.32;;
66886;SDS011;67239;51.680;5.976;2023-07-09T03:51:17;13.50;;;8.18;;
66886;SDS011;67239;51.680;5.976;2023-07-09T03:53:44;11.85;;;7.95;;
66886;SDS011;67239;51.680;5.976;2023-07-09T03:56:11;12.55;;;8.02;;
66886;SDS011;67239;51.680;5.976;2023-07-09T03:58:38;15.10;;;8.25;;
66886;SDS011;67239;51.680;5.976;2023-07-09T04:01:06;10.02;;;7.93;;
66886;SDS011;67239;51.680;5.976;2023-07-09T04:03:33;13.30;;;8.30;;
66886;SDS011;67239;51.680;5.976;2023-07-09T04:06:00;12.57;;;8.07;;
66886;SDS011;67239;51.680;5.976;2023-07-09T04:08:28;13.13;;;8.15;;
66886;SDS011;67239;51.680;5.976;2023-07-09T04:10:58;11.23;;;8.48;;
66886;SDS011;67239;51.680;5.976;2023-07-09T04:13:28;11.13;;;7.82;;
66886;SDS011;67239;51.680;5.976;2023-07-09T04:15:56;11.57;;;8.25;;
66886;SDS011;67239;51.680;5.976;2023-07-09T04:18:24;13.20;;;8.55;;
66886;SDS011;67239;51.680;5.976;2023-07-09T04:20:51;16.35;;;8.35;;
66886;SDS011;67239;51.680;5.976;2023-07-09T04:23:19;15.18;;;8.82;;
66886;SDS011;67239;51.680;5.976;2023-07-09T04:25:47;16.63;;;9.05;;
66886;SDS011;67239;51.680;5.976;2023-07-09T04:28:14;17.65;;;9.13;;
66886;SDS011;67239;51.680;5.976;2023-07-09T04:30:49;12.68;;;9.13;;
66886;SDS011;67239;51.680;5.976;2023-07-09T04:33:19;13.27;;;8.52;;
66886;SDS011;67239;51.680;5.976;2023-07-09T04:35:49;14.07;;;8.70;;
66886;SDS011;67239;51.680;5.976;2023-07-09T04:38:16;13.05;;;8.40;;
66886;SDS011;67239;51.680;5.976;2023-07-09T04:40:43;12.13;;;8.57;;
66886;SDS011;67239;51.680;5.976;2023-07-09T04:43:13;13.50;;;8.48;;
66886;SDS011;67239;51.680;5.976;2023-07-09T04:45:40;13.43;;;8.13;;
66886;SDS011;67239;51.680;5.976;2023-07-09T04:48:07;12.77;;;8.10;;
66886;SDS011;67239;51.680;5.976;2023-07-09T04:50:34;17.45;;;8.38;;
66886;SDS011;67239;51.680;5.976;2023-07-09T04:53:02;12.52;;;8.18;;
66886;SDS011;67239;51.680;5.976;2023-07-09T04:55:30;11.82;;;7.88;;
66886;SDS011;67239;51.680;5.976;2023-07-09T04:57:57;13.75;;;8.32;;
66886;SDS011;67239;51.680;5.976;2023-07-09T05:00:24;13.63;;;8.80;;
66886;SDS011;67239;51.680;5.976;2023-07-09T05:02:51;11.60;;;8.60;;
66886;SDS011;67239;51.680;5.976;2023-07-09T05:05:18;13.93;;;7.93;;
66886;SDS011;67239;51.680;5.976;2023-07-09T05:07:46;13.30;;;7.85;;
66886;SDS011;67239;51.680;5.976;2023-07-09T05:10:13;13.18;;;8.23;;
66886;SDS011;67239;51.680;5.976;2023-07-09T05:12:48;11.90;;;7.75;;
66886;SDS011;67239;51.680;5.976;2023-07-09T05:15:18;11.93;;;7.82;;
66886;SDS011;67239;51.680;5.976;2023-07-09T05:17:48;13.80;;;8.40;;
66886;SDS011;67239;51.680;5.976;2023-07-09T05:20:15;13.77;;;8.10;;
66886;SDS011;67239;51.680;5.976;2023-07-09T05:22:43;12.43;;;8.25;;
66886;SDS011;67239;51.680;5.976;2023-07-09T05:25:11;14.98;;;8.60;;
66886;SDS011;67239;51.680;5.976;2023-07-09T05:27:39;13.38;;;8.10;;
66886;SDS011;67239;51.680;5.976;2023-07-09T05:30:06;17.70;;;8.88;;
66886;SDS011;67239;51.680;5.976;2023-07-09T05:32:34;13.80;;;8.50;;
66886;SDS011;67239;51.680;5.976;2023-07-09T05:35:03;12.38;;;7.40;;
66886;SDS011;67239;51.680;5.976;2023-07-09T05:37:31;10.80;;;7.20;;
66886;SDS011;67239;51.680;5.976;2023-07-09T05:39:58;11.93;;;7.38;;
66886;SDS011;67239;51.680;5.976;2023-07-09T05:42:25;15.82;;;7.28;;
66886;SDS011;67239;51.680;5.976;2023-07-09T05:44:53;12.18;;;7.38;;
66886;SDS011;67239;51.680;5.976;2023-07-09T05:47:20;12.32;;;7.15;;
66886;SDS011;67239;51.680;5.976;2023-07-09T05:49:47;10.63;;;7.28;;
66886;SDS011;67239;51.680;5.976;2023-07-09T05:52:16;11.25;;;6.57;;
66886;SDS011;67239;51.680;5.976;2023-07-09T05:54:45;10.60;;;6.43;;
66886;SDS011;67239;51.680;5.976;2023-07-09T05:57:15;11.18;;;7.00;;
66886;SDS011;67239;51.680;5.976;2023-07-09T05:59:42;11.23;;;7.25;;
66886;SDS011;67239;51.680;5.976;2023-07-09T06:02:10;11.50;;;6.60;;
66886;SDS011;67239;51.680;5.976;2023-07-09T06:04:40;10.32;;;6.60;;
66886;SDS011;67239;51.680;5.976;2023-07-09T06:07:08;9.77;;;6.45;;
66886;SDS011;67239;51.680;5.976;2023-07-09T06:09:36;8.48;;;6.40;;
66886;SDS011;67239;51.680;5.976;2023-07-09T06:12:03;11.85;;;6.30;;
66886;SDS011;67239;51.680;5.976;2023-07-09T06:14:32;11.68;;;6.50;;
66886;SDS011;67239;51.680;5.976;2023-07-09T06:17:01;9.43;;;6.40;;
66886;SDS011;67239;51.680;5.976;2023-07-09T06:19:28;10.20;;;6.60;;
66886;SDS011;67239;51.680;5.976;2023-07-09T06:21:55;9.02;;;6.13;;
66886;SDS011;67239;51.680;5.976;2023-07-09T06:24:23;10.40;;;6.78;;
66886;SDS011;67239;51.680;5.976;2023-07-09T06:26:50;12.00;;;6.45;;
66886;SDS011;67239;51.680;5.976;2023-07-09T06:29:18;10.68;;;7.53;;
66886;SDS011;67239;51.680;5.976;2023-07-09T06:31:45;11.20;;;6.72;;
66886;SDS011;67239;51.680;5.976;2023-07-09T06:34:12;9.10;;;6.80;;
66886;SDS011;67239;51.680;5.976;2023-07-09T06:36:40;12.32;;;6.70;;
66886;SDS011;67239;51.680;5.976;2023-07-09T06:39:10;11.20;;;7.28;;
66886;SDS011;67239;51.680;5.976;2023-07-09T06:41:37;11.93;;;7.10;;
66886;SDS011;67239;51.680;5.976;2023-07-09T06:44:08;11.73;;;7.45;;
66886;SDS011;67239;51.680;5.976;2023-07-09T06:46:36;13.43;;;6.20;;
66886;SDS011;67239;51.680;5.976;2023-07-09T06:49:04;12.02;;;5.90;;
66886;SDS011;67239;51.680;5.976;2023-07-09T06:51:33;10.70;;;6.78;;
66886;SDS011;67239;51.680;5.976;2023-07-09T06:54:00;14.20;;;7.20;;
66886;SDS011;67239;51.680;5.976;2023-07-09T06:56:27;8.98;;;6.38;;
66886;SDS011;67239;51.680;5.976;2023-07-09T06:58:55;13.65;;;7.05;;
66886;SDS011;67239;51.680;5.976;2023-07-09T07:01:22;10.35;;;6.72;;
66886;SDS011;67239;51.680;5.976;2023-07-09T07:03:50;10.35;;;6.78;;
66886;SDS011;67239;51.680;5.976;2023-07-09T07:06:17;9.00;;;6.10;;
66886;SDS011;67239;51.680;5.976;2023-07-09T07:08:44;9.60;;;6.63;;
66886;SDS011;67239;51.680;5.976;2023-07-09T07:11:11;9.85;;;5.88;;
66886;SDS011;67239;51.680;5.976;2023-07-09T07:13:39;9.75;;;5.90;;
66886;SDS011;67239;51.680;5.976;2023-07-09T07:16:09;8.90;;;6.13;;
66886;SDS011;67239;51.680;5.976;2023-07-09T07:18:38;8.27;;;6.35;;
66886;SDS011;67239;51.680;5.976;2023-07-09T07:21:06;7.75;;;5.55;;
66886;SDS011;67239;51.680;5.976;2023-07-09T07:23:33;11.02;;;5.90;;
66886;SDS011;67239;51.680;5.976;2023-07-09T07:26:01;9.02;;;5.82;;
66886;SDS011;67239;51.680;5.976;2023-07-09T07:28:29;10.65;;;5.53;;
66886;SDS011;67239;51.680;5.976;2023-07-09T07:30:58;13.23;;;5.53;;
66886;SDS011;67239;51.680;5.976;2023-07-09T07:33:27;7.68;;;5.18;;
66886;SDS011;67239;51.680;5.976;2023-07-09T07:35:55;12.52;;;5.53;;
66886;SDS011;67239;51.680;5.976;2023-07-09T07:38:42;9.40;;;5.40;;
66886;SDS011;67239;51.680;5.976;2023-07-09T07:41:09;10.40;;;5.97;;
66886;SDS011;67239;51.680;5.976;2023-07-09T07:43:37;8.95;;;5.53;;
66886;SDS011;67239;51.680;5.976;2023-07-09T07:46:05;9.63;;;5.70;;
66886;SDS011;67239;51.680;5.976;2023-07-09T07:48:35;11.95;;;5.63;;
66886;SDS011;67239;51.680;5.976;2023-07-09T07:51:03;11.82;;;5.28;;
66886;SDS011;67239;51.680;5.976;2023-07-09T07:53:31;11.85;;;5.70;;
66886;SDS011;67239;51.680;5.976;2023-07-09T07:55:58;11.10;;;5.28;;
66886;SDS011;67239;51.680;5.976;2023-07-09T07:58:29;10.65;;;5.53;;
66886;SDS011;67239;51.680;5.976;2023-07-09T08:00:57;10.77;;;5.43;;
66886;SDS011;67239;51.680;5.976;2023-07-09T08:03:25;8.75;;;4.82;;
66886;SDS011;67239;51.680;5.976;2023-07-09T08:05:53;9.88;;;5.68;;
66886;SDS011;67239;51.680;5.976;2023-07-09T08:08:20;7.00;;;4.57;;
66886;SDS011;67239;51.680;5.976;2023-07-09T08:10:49;8.70;;;4.95;;
66886;SDS011;67239;51.680;5.976;2023-07-09T08:13:18;7.22;;;4.80;;
66886;SDS011;67239;51.680;5.976;2023-07-09T08:15:46;9.82;;;4.93;;
66886;SDS011;67239;51.680;5.976;2023-07-09T08:18:14;9.90;;;5.00;;
66886;SDS011;67239;51.680;5.976;2023-07-09T08:20:44;8.25;;;4.95;;
66886;SDS011;67239;51.680;5.976;2023-07-09T08:23:11;10.80;;;4.75;;
66886;SDS011;67239;51.680;5.976;2023-07-09T08:25:38;11.10;;;5.00;;
66886;SDS011;67239;51.680;5.976;2023-07-09T08:28:06;7.68;;;4.60;;
66886;SDS011;67239;51.680;5.976;2023-07-09T08:30:33;8.93;;;4.80;;
66886;SDS011;67239;51.680;5.976;2023-07-09T08:33:02;9.02;;;4.82;;
66886;SDS011;67239;51.680;5.976;2023-07-09T08:35:29;11.48;;;5.07;;
66886;SDS011;67239;51.680;5.976;2023-07-09T08:38:03;13.60;;;5.07;;
66886;SDS011;67239;51.680;5.976;2023-07-09T08:40:30;10.18;;;5.10;;
66886;SDS011;67239;51.680;5.976;2023-07-09T08:43:01;7.60;;;4.70;;
66886;SDS011;67239;51.680;5.976;2023-07-09T08:45:46;8.77;;;4.72;;
66886;SDS011;67239;51.680;5.976;2023-07-09T08:48:38;7.93;;;4.45;;
66886;SDS011;67239;51.680;5.976;2023-07-09T08:51:13;7.57;;;5.03;;
66886;SDS011;67239;51.680;5.976;2023-07-09T08:53:54;9.63;;;4.95;;
66886;SDS011;67239;51.680;5.976;2023-07-09T08:56:29;6.68;;;4.10;;
66886;SDS011;67239;51.680;5.976;2023-07-09T08:59:00;8.32;;;4.30;;
66886;SDS011;67239;51.680;5.976;2023-07-09T09:01:36;6.75;;;4.18;;
66886;SDS011;67239;51.680;5.976;2023-07-09T09:04:20;13.25;;;4.40;;
66886;SDS011;67239;51.680;5.976;2023-07-09T09:06:57;8.57;;;4.38;;
66886;SDS011;67239;51.680;5.976;2023-07-09T09:10:05;8.25;;;4.13;;
66886;SDS011;67239;51.680;5.976;2023-07-09T09:12:40;8.23;;;4.25;;
66886;SDS011;67239;51.680;5.976;2023-07-09T09:15:19;6.82;;;3.65;;
66886;SDS011;67239;51.680;5.976;2023-07-09T09:17:48;5.60;;;3.53;;
66886;SDS011;67239;51.680;5.976;2023-07-09T09:20:24;8.82;;;4.00;;
66886;SDS011;67239;51.680;5.976;2023-07-09T09:23:04;9.82;;;3.63;;
66886;SDS011;67239;51.680;5.976;2023-07-09T09:25:47;7.68;;;3.45;;
66886;SDS011;67239;51.680;5.976;2023-07-09T09:28:39;8.55;;;3.50;;
66886;SDS011;67239;51.680;5.976;2023-07-09T09:31:08;6.53;;;3.55;;
66886;SDS011;67239;51.680;5.976;2023-07-09T09:33:41;6.45;;;3.60;;
66886;SDS011;67239;51.680;5.976;2023-07-09T09:36:22;4.78;;;3.30;;
66886;SDS011;67239;51.680;5.976;2023-07-09T09:38:52;7.32;;;3.42;;
66886;SDS011;67239;51.680;5.976;2023-07-09T09:41:21;6.90;;;3.50;;
66886;SDS011;67239;51.680;5.976;2023-07-09T09:43:52;6.95;;;3.17;;
66886;SDS011;67239;51.680;5.976;2023-07-09T09:46:22;7.57;;;3.38;;
66886;SDS011;67239;51.680;5.976;2023-07-09T09:48:54;6.75;;;3.95;;
66886;SDS011;67239;51.680;5.976;2023-07-09T09:51:26;11.53;;;3.90;;
66886;SDS011;67239;51.680;5.976;2023-07-09T09:53:58;6.40;;;3.97;;
66886;SDS011;67239;51.680;5.976;2023-07-09T09:56:33;8.30;;;4.18;;
66886;SDS011;67239;51.680;5.976;2023-07-09T09:59:04;7.97;;;4.10;;
66886;SDS011;67239;51.680;5.976;2023-07-09T10:01:33;8.73;;;3.95;;
66886;SDS011;67239;51.680;5.976;2023-07-09T10:04:03;7.03;;;3.92;;
66886;SDS011;67239;51.680;5.976;2023-07-09T10:06:42;8.02;;;4.00;;
66886;SDS011;67239;51.680;5.976;2023-07-09T10:09:31;6.20;;;3.90;;
66886;SDS011;67239;51.680;5.976;2023-07-09T10:18:00;6.68;;;4.00;;
66886;SDS011;67239;51.680;5.976;2023-07-09T10:27:00;8.27;;;4.30;;
66886;SDS011;67239;51.680;5.976;2023-07-09T10:29:42;9.60;;;4.22;;
66886;SDS011;67239;51.680;5.976;2023-07-09T10:35:38;6.68;;;3.85;;
66886;SDS011;67239;51.680;5.976;2023-07-09T10:38:33;7.70;;;3.97;;
66886;SDS011;67239;51.680;5.976;2023-07-09T10:41:10;9.10;;;4.05;;
66886;SDS011;67239;51.680;5.976;2023-07-09T10:43:54;8.87;;;3.87;;
66886;SDS011;67239;51.680;5.976;2023-07-09T10:46:32;7.03;;;4.03;;
66886;SDS011;67239;51.680;5.976;2023-07-09T10:49:05;6.95;;;4.10;;
66886;SDS011;67239;51.680;5.976;2023-07-09T10:51:55;7.85;;;3.67;;
66886;SDS011;67239;51.680;5.976;2023-07-09T10:54:50;9.27;;;4.32;;
66886;SDS011;67239;51.680;5.976;2023-07-09T11:00:22;5.72;;;3.47;;
66886;SDS011;67239;51.680;5.976;2023-07-09T11:03:13;9.15;;;3.90;;
66886;SDS011;67239;51.680;5.976;2023-07-09T11:06:09;8.02;;;3.63;;
66886;SDS011;67239;51.680;5.976;2023-07-09T11:08:49;8.50;;;3.88;;
66886;SDS011;67239;51.680;5.976;2023-07-09T11:14:18;7.05;;;3.70;;
66886;SDS011;67239;51.680;5.976;2023-07-09T11:16:59;8.90;;;3.35;;
66886;SDS011;67239;51.680;5.976;2023-07-09T11:19:28;8.32;;;3.90;;
66886;SDS011;67239;51.680;5.976;2023-07-09T11:21:57;7.03;;;3.70;;
66886;SDS011;67239;51.680;5.976;2023-07-09T11:27:33;5.25;;;3.05;;
66886;SDS011;67239;51.680;5.976;2023-07-09T11:30:19;6.90;;;3.47;;
66886;SDS011;67239;51.680;5.976;2023-07-09T11:33:15;8.27;;;3.03;;
66886;SDS011;67239;51.680;5.976;2023-07-09T11:35:54;8.07;;;3.35;;
66886;SDS011;67239;51.680;5.976;2023-07-09T11:38:39;7.65;;;3.40;;
66886;SDS011;67239;51.680;5.976;2023-07-09T11:44:23;8.75;;;3.38;;
66886;SDS011;67239;51.680;5.976;2023-07-09T11:49:58;8.43;;;3.40;;
66886;SDS011;67239;51.680;5.976;2023-07-09T11:57:57;7.18;;;3.10;;
66886;SDS011;67239;51.680;5.976;2023-07-09T12:00:29;6.65;;;3.45;;
66886;SDS011;67239;51.680;5.976;2023-07-09T12:03:06;7.45;;;3.30;;
66886;SDS011;67239;51.680;5.976;2023-07-09T12:05:41;6.35;;;3.50;;
66886;SDS011;67239;51.680;5.976;2023-07-09T12:08:16;6.28;;;3.20;;
66886;SDS011;67239;51.680;5.976;2023-07-09T12:10:45;5.75;;;3.40;;
66886;SDS011;67239;51.680;5.976;2023-07-09T12:13:12;5.47;;;3.20;;
66886;SDS011;67239;51.680;5.976;2023-07-09T12:15:40;6.03;;;3.33;;
66886;SDS011;67239;51.680;5.976;2023-07-09T12:18:11;5.97;;;3.40;;
66886;SDS011;67239;51.680;5.976;2023-07-09T12:20:41;7.97;;;3.17;;
66886;SDS011;67239;51.680;5.976;2023-07-09T12:23:19;6.38;;;2.90;;
66886;SDS011;67239;51.680;5.976;2023-07-09T12:25:54;7.57;;;3.50;;
66886;SDS011;67239;51.680;5.976;2023-07-09T12:28:22;6.57;;;3.25;;
66886;SDS011;67239;51.680;5.976;2023-07-09T12:30:50;5.82;;;2.97;;
66886;SDS011;67239;51.680;5.976;2023-07-09T12:33:20;7.35;;;3.08;;
66886;SDS011;67239;51.680;5.976;2023-07-09T12:35:56;9.40;;;2.90;;
66886;SDS011;67239;51.680;5.976;2023-07-09T12:38:40;5.35;;;3.00;;
66886;SDS011;67239;51.680;5.976;2023-07-09T12:41:19;5.72;;;2.70;;
66886;SDS011;67239;51.680;5.976;2023-07-09T12:43:52;5.13;;;2.75;;
66886;SDS011;67239;51.680;5.976;2023-07-09T12:46:22;4.85;;;2.67;;
66886;SDS011;67239;51.680;5.976;2023-07-09T12:48:51;4.57;;;2.85;;
66886;SDS011;67239;51.680;5.976;2023-07-09T12:51:24;6.88;;;2.90;;
66886;SDS011;67239;51.680;5.976;2023-07-09T12:54:02;6.35;;;2.72;;
66886;SDS011;67239;51.680;5.976;2023-07-09T12:56:42;6.35;;;2.85;;
66886;SDS011;67239;51.680;5.976;2023-07-09T12:59:18;7.68;;;3.15;;
66886;SDS011;67239;51.680;5.976;2023-07-09T13:02:01;6.43;;;2.70;;
66886;SDS011;67239;51.680;5.976;2023-07-09T13:04:41;5.70;;;2.70;;
66886;SDS011;67239;51.680;5.976;2023-07-09T13:07:24;4.82;;;2.67;;
66886;SDS011;67239;51.680;5.976;2023-07-09T13:10:11;5.38;;;2.38;;
66886;SDS011;67239;51.680;5.976;2023-07-09T13:12:49;5.47;;;2.60;;
66886;SDS011;67239;51.680;5.976;2023-07-09T13:15:19;5.60;;;2.60;;
66886;SDS011;67239;51.680;5.976;2023-07-09T13:17:57;5.80;;;3.00;;
66886;SDS011;67239;51.680;5.976;2023-07-09T13:20:33;6.88;;;2.97;;
66886;SDS011;67239;51.680;5.976;2023-07-09T13:23:11;7.97;;;3.05;;
66886;SDS011;67239;51.680;5.976;2023-07-09T13:25:51;8.05;;;3.15;;
66886;SDS011;67239;51.680;5.976;2023-07-09T13:28:22;7.35;;;2.95;;
66886;SDS011;67239;51.680;5.976;2023-07-09T13:30:55;6.85;;;2.97;;
66886;SDS011;67239;51.680;5.976;2023-07-09T13:33:36;8.25;;;3.10;;
66886;SDS011;67239;51.680;5.976;2023-07-09T13:36:04;6.07;;;3.13;;
66886;SDS011;67239;51.680;5.976;2023-07-09T13:38:33;7.90;;;3.47;;
66886;SDS011;67239;51.680;5.976;2023-07-09T13:41:01;6.95;;;2.85;;
66886;SDS011;67239;51.680;5.976;2023-07-09T13:43:39;17.23;;;3.28;;
66886;SDS011;67239;51.680;5.976;2023-07-09T13:46:11;9.27;;;3.93;;
66886;SDS011;67239;51.680;5.976;2023-07-09T13:48:40;10.10;;;3.97;;
66886;SDS011;67239;51.680;5.976;2023-07-09T13:51:14;8.02;;;3.95;;
66886;SDS011;67239;51.680;5.976;2023-07-09T13:53:47;8.10;;;3.85;;
66886;SDS011;67239;51.680;5.976;2023-07-09T13:56:18;9.90;;;4.78;;
66886;SDS011;67239;51.680;5.976;2023-07-09T13:58:46;14.77;;;6.47;;
66886;SDS011;67239;51.680;5.976;2023-07-09T14:01:15;14.07;;;7.90;;
66886;SDS011;67239;51.680;5.976;2023-07-09T14:03:48;14.38;;;8.10;;
66886;SDS011;67239;51.680;5.976;2023-07-09T14:06:16;15.85;;;8.95;;
66886;SDS011;67239;51.680;5.976;2023-07-09T14:08:45;14.63;;;9.48;;
66886;SDS011;67239;51.680;5.976;2023-07-09T14:11:13;19.15;;;9.65;;
66886;SDS011;67239;51.680;5.976;2023-07-09T14:13:44;18.65;;;9.73;;
66886;SDS011;67239;51.680;5.976;2023-07-09T14:16:13;14.57;;;10.25;;
66886;SDS011;67239;51.680;5.976;2023-07-09T14:18:45;18.10;;;9.43;;
66886;SDS011;67239;51.680;5.976;2023-07-09T14:21:14;18.02;;;9.02;;
66886;SDS011;67239;51.680;5.976;2023-07-09T14:23:53;13.20;;;8.50;;
66886;SDS011;67239;51.680;5.976;2023-07-09T14:26:20;15.73;;;9.23;;
66886;SDS011;67239;51.680;5.976;2023-07-09T14:28:48;17.15;;;8.50;;
66886;SDS011;67239;51.680;5.976;2023-07-09T14:31:25;14.35;;;8.57;;
66886;SDS011;67239;51.680;5.976;2023-07-09T14:33:57;16.83;;;8.45;;
66886;SDS011;67239;51.680;5.976;2023-07-09T14:36:45;29.30;;;9.80;;
66886;SDS011;67239;51.680;5.976;2023-07-09T14:39:12;29.27;;;11.80;;
66886;SDS011;67239;51.680;5.976;2023-07-09T14:41:39;25.35;;;13.07;;
66886;SDS011;67239;51.680;5.976;2023-07-09T14:44:28;13.88;;;4.47;;
66886;SDS011;67239;51.680;5.976;2023-07-09T14:46:58;13.27;;;5.15;;
66886;SDS011;67239;51.680;5.976;2023-07-09T14:49:27;13.35;;;4.93;;
66886;SDS011;67239;51.680;5.976;2023-07-09T14:51:55;11.35;;;4.03;;
66886;SDS011;67239;51.680;5.976;2023-07-09T14:54:23;7.15;;;4.28;;
66886;SDS011;67239;51.680;5.976;2023-07-09T14:56:57;12.90;;;7.18;;
66886;SDS011;67239;51.680;5.976;2023-07-09T14:59:25;16.65;;;10.95;;
66886;SDS011;67239;51.680;5.976;2023-07-09T15:01:54;20.08;;;13.48;;
66886;SDS011;67239;51.680;5.976;2023-07-09T15:06:52;22.20;;;18.00;;
66886;SDS011;67239;51.680;5.976;2023-07-09T15:09:23;25.35;;;17.88;;
66886;SDS011;67239;51.680;5.976;2023-07-09T15:11:55;21.70;;;15.13;;
66886;SDS011;67239;51.680;5.976;2023-07-09T15:14:26;16.92;;;13.05;;
66886;SDS011;67239;51.680;5.976;2023-07-09T15:16:54;17.73;;;11.32;;
66886;SDS011;67239;51.680;5.976;2023-07-09T15:19:26;18.02;;;10.35;;
66886;SDS011;67239;51.680;5.976;2023-07-09T15:21:54;15.63;;;10.27;;
66886;SDS011;67239;51.680;5.976;2023-07-09T15:26:57;15.88;;;10.18;;
66886;SDS011;67239;51.680;5.976;2023-07-09T15:29:27;15.05;;;11.35;;
66886;SDS011;67239;51.680;5.976;2023-07-09T15:31:55;15.07;;;10.63;;
66886;SDS011;67239;51.680;5.976;2023-07-09T15:34:23;11.32;;;8.05;;
66886;SDS011;67239;51.680;5.976;2023-07-09T15:36:51;12.25;;;7.50;;
66886;SDS011;67239;51.680;5.976;2023-07-09T15:39:19;9.60;;;6.68;;
66886;SDS011;67239;51.680;5.976;2023-07-09T15:41:47;7.90;;;4.63;;
66886;SDS011;67239;51.680;5.976;2023-07-09T15:44:15;7.00;;;4.63;;
66886;SDS011;67239;51.680;5.976;2023-07-09T15:46:51;10.90;;;5.20;;
66886;SDS011;67239;51.680;5.976;2023-07-09T15:49:23;9.57;;;4.00;;
66886;SDS011;67239;51.680;5.976;2023-07-09T15:51:52;6.70;;;3.90;;
66886;SDS011;67239;51.680;5.976;2023-07-09T15:54:20;5.60;;;3.53;;
66886;SDS011;67239;51.680;5.976;2023-07-09T15:56:51;7.68;;;4.32;;